Terminal Aerodrome Forecast
Issued by NWS

Home | Current Version | Previous Version | Text Only | Print | Product List | Glossary On
Versions: 1 2 3 4 5 6 7 8 9 10 11 12 13 14 15
000
FTUS45 KTFX 020200 AAA
TAFHLN
TAF AMD
KHLN 020217Z 0202/0224 26008KT P6SM SCT070
      TEMPO 0202/0204 27010G20KT
     FM021300 33010KT P6SM VCSH SCT035 OVC050
      TEMPO 0215/0219 36015G25KT 5SM -SHRASN BKN025=

USA.gov is the U.S. government's official web portal to all federal, state and local government web resources and services.